Hafnia Soya — 9V3282 — position and weather

sailwx.info

Track history (hours):
 
Tides and Currents Weather Stations Pressure Air Temp Water Temp Dewpoint Dewpoint Depression Visibility Wind Speed Wind Dir Waves Ship Positions

Hafnia Soya

Last reported at 2018-Jun-25 06:00 UTC. Time now 2018-Jun-25 06:07 UTC.
Position N 59°45' E 024°43'.

Length 184 m; draft 8.2 m.

Type: Tanker. MMSI: 566583000.

Date/timePositionNaut miles runAvg speedWind from/ knotsBaromVisibWave heightAir tempDewpointWater temp
2018-Jun-25 06:00N 59°45' E 024°43'612.9
2018-Jun-25 05:30N 59°44' E 024°31'612.6
2018-Jun-25 05:00N 59°42' E 024°19'712.3
2018-Jun-25 04:27N 59°40' E 024°06'1012.6
2018-Jun-25 03:41N 59°37' E 023°48'512.4
2018-Jun-25 03:19N 59°36' E 023°39'412.4
2018-Jun-25 03:00N 59°35' E 023°32'812.2
2018-Jun-25 02:23N 59°32' E 023°18'5612.7
2018-Jun-24 21:58N 59°04' E 021°43'611.9
2018-Jun-24 21:26N 58°58' E 021°35'511.8
2018-Jun-24 21:00N 58°54' E 021°30'28413.1
2018-Jun-23 23:14N 55°35' E 015°15'613.1
2018-Jun-23 22:48N 55°32' E 015°06'413.2
2018-Jun-23 22:30N 55°30' E 015°00'613.0
2018-Jun-23 22:00N 55°27' E 014°50'613.0
2018-Jun-23 21:30N 55°24' E 014°40'612.9
2018-Jun-23 21:01N 55°19' E 014°32'612.9
2018-Jun-23 20:31N 55°15' E 014°25'712.8
2018-Jun-23 20:00N 55°10' E 014°17'613.1
2018-Jun-23 19:30N 55°09' E 014°05'713.3
2018-Jun-23 19:00N 55°09' E 013°53'613.2
2018-Jun-23 18:30N 55°10' E 013°42'713.6
2018-Jun-23 18:00N 55°11' E 013°30'1013.4
2018-Jun-23 17:17N 55°12' E 013°14'513.0
2018-Jun-23 16:57N 55°13' E 013°06'613.2
2018-Jun-23 16:29N 55°14' E 012°56'713.5
2018-Jun-23 16:00N 55°16' E 012°45'511.0
2018-Jun-23 15:30N 55°20' E 012°38'612.7
2018-Jun-23 15:00N 55°27' E 012°40'510.9
2018-Jun-23 14:30N 55°31' E 012°45'4 9.1
2018-Jun-23 14:00N 55°35' E 012°50'4 7.9
2018-Jun-23 13:30N 55°38' E 012°55'611.8
2018-Jun-23 13:01N 55°43' E 012°52'713.8
2018-Jun-23 12:30N 55°49' E 012°46'714.1
2018-Jun-23 12:00N 55°56' E 012°43'715.0
2018-Jun-23 11:30N 56°03' E 012°39'713.4
2018-Jun-23 11:00N 56°07' E 012°29'713.9
2018-Jun-23 10:30N 56°11' E 012°19'6913.0
2018-Jun-23 05:12N 57°16' E 011°32'313.8
2018-Jun-23 05:00N 57°18' E 011°30'713.9
2018-Jun-23 04:30N 57°25' E 011°26'713.7
2018-Jun-23 04:00N 57°30' E 011°18'713.1
2018-Jun-23 03:30N 57°35' E 011°09'713.4
2018-Jun-23 03:00N 57°39' E 011°00'713.3
2018-Jun-23 02:30N 57°44' E 010°51'713.6
2018-Jun-23 02:00N 57°48' E 010°41'40810.1
2018-Jun-21 09:34N 52°29' E 003°14'112.6
2018-Jun-21 09:30N 52°29' E 003°13'612.5
2018-Jun-21 09:01N 52°22' E 003°12'612.5
2018-Jun-21 08:30N 52°16' E 003°10'1712.6
2018-Jun-21 07:10N 51°60' E 003°06'512.5
2018-Jun-21 06:46N 51°55' E 003°07'312.3
2018-Jun-21 06:29N 51°51' E 003°08'911.6
2018-Jun-21 05:42N 51°44' E 003°17'1 3.6
2018-Jun-21 05:30N 51°44' E 003°17'6 9.1
2018-Jun-21 04:52N 51°38' E 003°21'511.5
2018-Jun-21 04:26N 51°34' E 003°25'510.5
2018-Jun-21 04:00N 51°30' E 003°28'510.3
2018-Jun-21 03:30N 51°26' E 003°34'3 6.6
2018-Jun-21 03:00N 51°27' E 003°39'611.1
2018-Jun-21 02:30N 51°22' E 003°45'612.6
2018-Jun-21 02:00N 51°22' E 003°55'510.9
2018-Jun-21 01:30N 51°25' E 004°02'510.6
2018-Jun-21 01:00N 51°23' E 004°09'5 9.7
2018-Jun-21 00:30N 51°21' E 004°16'1 1.3
2018-Jun-21 00:01N 51°21' E 004°17'0 0.0
2018-Jun-20 23:31N 51°21' E 004°17'0 0.7
2018-Jun-20 23:00N 51°21' E 004°18'3 5.8
2018-Jun-20 22:30N 51°18' E 004°20'1 1.4
2018-Jun-20 22:01N 51°17' E 004°20'0 0.0
2018-Jun-20 21:28N 51°17' E 004°20'0 0.0
2018-Jun-20 20:58N 51°17' E 004°20'0 0.0
2018-Jun-20 20:28N 51°17' E 004°20'0 0.0
2018-Jun-20 19:34N 51°17' E 004°20'0 0.0
2018-Jun-20 19:28N 51°17' E 004°20'0 0.0
2018-Jun-20 19:01N 51°17' E 004°20'0 0.0
2018-Jun-20 18:19N 51°17' E 004°20'0 0.0
2018-Jun-20 17:58N 51°17' E 004°20'0 0.0
2018-Jun-20 17:28N 51°17' E 004°20'0 0.0
2018-Jun-20 16:55N 51°17' E 004°20'0 0.0
2018-Jun-20 16:31N 51°17' E 004°20'0 0.0
2018-Jun-20 15:40N 51°17' E 004°20'0 0.0
2018-Jun-20 15:28N 51°17' E 004°20'0 0.0
2018-Jun-20 15:01N 51°17' E 004°20'0 0.0
2018-Jun-20 14:28N 51°17' E 004°20'0 0.0
2018-Jun-20 13:55N 51°17' E 004°20'0 0.0
2018-Jun-20 13:31N 51°17' E 004°20'0 0.0
2018-Jun-20 13:01N 51°17' E 004°20'0 0.0
2018-Jun-20 12:31N 51°17' E 004°20'0 0.0
2018-Jun-20 12:01N 51°17' E 004°20'0 0.0
2018-Jun-20 11:31N 51°17' E 004°20'0 0.0
2018-Jun-20 11:01N 51°17' E 004°20'0 0.0
2018-Jun-20 10:31N 51°17' E 004°20'0 0.0
2018-Jun-20 09:55N 51°17' E 004°20'0 0.0
2018-Jun-20 09:28N 51°17' E 004°20'0 0.0
2018-Jun-20 09:01N 51°17' E 004°20'0 0.0
2018-Jun-20 08:31N 51°17' E 004°20'0 0.0
2018-Jun-20 07:49N 51°17' E 004°20'0 0.0
2018-Jun-20 07:22N 51°17' E 004°20'0 0.0
2018-Jun-20 04:37N 51°17' E 004°20'0 0.0
2018-Jun-20 04:25N 51°17' E 004°20'0 0.0
2018-Jun-20 03:55N 51°17' E 004°20'0 0.0
2018-Jun-20 03:31N 51°17' E 004°20'0 0.0
2018-Jun-20 03:01N 51°17' E 004°20'0 0.0
2018-Jun-20 02:07N 51°17' E 004°20'0 0.0
2018-Jun-20 01:55N 51°17' E 004°20'0 0.0
2018-Jun-20 01:31N 51°17' E 004°20'0 0.0
2018-Jun-19 23:49N 51°17' E 004°20'0 0.0
2018-Jun-19 23:31N 51°17' E 004°20'0 0.0
2018-Jun-19 22:55N 51°17' E 004°20'0 0.0
2018-Jun-19 22:25N 51°17' E 004°20'0 0.0
2018-Jun-19 22:01N 51°17' E 004°20'0 0.0
2018-Jun-19 21:22N 51°17' E 004°20'0 0.0
2018-Jun-19 18:22N 51°17' E 004°20'0 0.0
2018-Jun-19 17:55N 51°17' E 004°20'0 0.0
2018-Jun-19 16:43N 51°17' E 004°20'0 0.0
2018-Jun-19 16:31N 51°17' E 004°20'0 0.0
2018-Jun-19 15:52N 51°17' E 004°20'0 0.0
2018-Jun-19 15:25N 51°17' E 004°20'0 0.0
2018-Jun-19 14:58N 51°17' E 004°20'0 0.0
2018-Jun-19 14:16N 51°17' E 004°20'0 0.0
2018-Jun-19 14:01N 51°17' E 004°20'0 0.0
2018-Jun-19 13:25N 51°17' E 004°20'0 0.0
2018-Jun-19 13:01N 51°17' E 004°20'0 0.0
2018-Jun-19 11:25N 51°17' E 004°20'0 0.0
2018-Jun-19 10:55N 51°17' E 004°20'0 0.0
2018-Jun-19 10:31N 51°17' E 004°20'0 0.0
2018-Jun-19 10:01N 51°17' E 004°20'0 0.0
2018-Jun-19 09:13N 51°17' E 004°20'0 0.0
2018-Jun-19 08:55N 51°17' E 004°20'0 0.0
2018-Jun-19 06:25N 51°17' E 004°20'0 0.0
2018-Jun-19 06:01N 51°17' E 004°20'0 0.0
2018-Jun-19 05:19N 51°17' E 004°20'0 0.0
2018-Jun-19 04:58N 51°17' E 004°20'0 0.0
2018-Jun-19 04:28N 51°17' E 004°20'0 0.0
2018-Jun-19 03:55N 51°17' E 004°20'0 0.0
2018-Jun-19 03:31N 51°17' E 004°20'0 0.0
2018-Jun-19 03:01N 51°17' E 004°20'0 0.0
2018-Jun-19 02:31N 51°17' E 004°20'0 0.0
2018-Jun-19 02:01N 51°17' E 004°20'0 0.0
2018-Jun-19 01:28N 51°17' E 004°20'0 0.0
2018-Jun-19 00:58N 51°17' E 004°20'0 0.0
2018-Jun-19 00:28N 51°17' E 004°20'0 0.0
2018-Jun-18 23:52N 51°17' E 004°20'0 0.0
2018-Jun-18 23:28N 51°17' E 004°20'0 0.0
2018-Jun-18 22:58N 51°17' E 004°20'0 0.0
2018-Jun-18 22:25N 51°17' E 004°20'0 0.0
2018-Jun-18 19:19N 51°17' E 004°20'0 0.0
2018-Jun-18 18:55N 51°17' E 004°20'0 0.0
2018-Jun-18 17:43N 51°17' E 004°20'0 0.0
2018-Jun-18 16:28N 51°17' E 004°20'0 0.0
2018-Jun-18 15:49N 51°17' E 004°20'0 0.0
2018-Jun-18 14:43N 51°17' E 004°20'0 0.0
2018-Jun-18 14:13N 51°17' E 004°20'0 0.0
2018-Jun-18 13:55N 51°17' E 004°20'0 0.0
2018-Jun-18 10:16N 51°17' E 004°20'0 0.0
2018-Jun-18 10:01N 51°17' E 004°20'0 0.0
2018-Jun-18 08:40N 51°17' E 004°20'0 0.0
2018-Jun-18 08:25N 51°17' E 004°20'0 0.0
2018-Jun-18 07:34N 51°17' E 004°20'0 0.0
2018-Jun-18 07:04N 51°17' E 004°20'0 0.1
2018-Jun-18 07:00N 51°17' E 004°20'0 0.4
2018-Jun-18 06:30N 51°17' E 004°20'3 5.4
2018-Jun-18 06:00N 51°20' E 004°18'1 1.9
2018-Jun-18 05:28N 51°21' E 004°17'0 0.0
2018-Jun-18 04:58N 51°21' E 004°17'0 0.0
2018-Jun-18 04:30N 51°21' E 004°17'1 1.0
2018-Jun-18 04:00N 51°21' E 004°16'4 7.6
2018-Jun-18 03:31N 51°24' E 004°12'611.9
2018-Jun-18 03:00N 51°23' E 004°03'4 7.8
2018-Jun-18 02:30N 51°25' E 003°58'612.7
2018-Jun-18 02:00N 51°21' E 003°50'611.9
2018-Jun-18 01:30N 51°25' E 003°42'5 9.3
2018-Jun-18 01:00N 51°26' E 003°35'611.1
2018-Jun-18 00:30N 51°25' E 003°26'612.5
2018-Jun-18 00:00N 51°24' E 003°16'611.6
2018-Jun-17 23:30N 51°24' E 003°07'510.3
2018-Jun-17 23:00N 51°25' E 002°59'511.0
2018-Jun-17 22:30N 51°25' E 002°50'5 9.0
2018-Jun-17 22:00N 51°22' E 002°45'3 6.3
2018-Jun-17 21:28N 51°25' E 002°41'2 4.7
2018-Jun-17 20:56N 51°27' E 002°40'0 0.2
2018-Jun-17 20:25N 51°27' E 002°40'0 0.0
2018-Jun-17 19:58N 51°27' E 002°40'0 0.0
2018-Jun-17 19:28N 51°27' E 002°40'0 0.0
2018-Jun-17 18:46N 51°27' E 002°40'0 0.0
2018-Jun-17 18:28N 51°27' E 002°40'0 0.0
2018-Jun-17 17:58N 51°27' E 002°40'0 0.0
2018-Jun-17 17:28N 51°27' E 002°40'0 0.0
2018-Jun-17 16:58N 51°27' E 002°40'0 0.0
2018-Jun-17 16:28N 51°27' E 002°40'0 0.0
2018-Jun-17 15:58N 51°27' E 002°40'0 0.1
2018-Jun-17 15:28N 51°27' E 002°40'0 0.1
2018-Jun-17 14:58N 51°27' E 002°40'0 0.0
2018-Jun-17 14:28N 51°27' E 002°40'0 0.1
2018-Jun-17 13:55N 51°27' E 002°40'0 0.1
2018-Jun-17 13:25N 51°27' E 002°40'0 0.2
2018-Jun-17 12:10N 51°27' E 002°39'0 0.0
2018-Jun-17 11:52N 51°27' E 002°39'0 0.0
2018-Jun-17 11:28N 51°27' E 002°39'0 0.0
2018-Jun-17 10:58N 51°27' E 002°39'0 0.0
2018-Jun-17 10:28N 51°27' E 002°39'0 0.0
2018-Jun-17 09:55N 51°27' E 002°39'0 0.0
2018-Jun-17 09:28N 51°27' E 002°39'0 0.2
2018-Jun-17 08:58N 51°27' E 002°39'0 0.4
2018-Jun-17 08:25N 51°27' E 002°39'0 0.2
2018-Jun-17 07:46N 51°27' E 002°40'0 0.1
2018-Jun-17 07:28N 51°27' E 002°40'0 0.0
2018-Jun-17 06:58N 51°27' E 002°40'0 0.0
2018-Jun-17 06:28N 51°27' E 002°40'0 0.0
2018-Jun-17 05:58N 51°27' E 002°40'0 0.0
2018-Jun-17 05:28N 51°27' E 002°40'0 0.0
2018-Jun-17 04:55N 51°27' E 002°40'0 0.5
2018-Jun-17 04:26N 51°27' E 002°39'4 9.0
2018-Jun-17 03:59N 51°24' E 002°35'612.2
2018-Jun-17 03:28N 51°21' E 002°26'612.9
2018-Jun-17 03:00N 51°18' E 002°18'713.3
2018-Jun-17 02:31N 51°15' E 002°09'713.4
2018-Jun-17 02:00N 51°12' E 001°59'713.6
2018-Jun-17 01:30N 51°08' E 001°50'713.9
2018-Jun-17 01:00N 51°04' E 001°42'713.7
2018-Jun-17 00:30N 50°59' E 001°34'612.8
2018-Jun-17 00:00N 50°54' E 001°26'611.9
2018-Jun-16 23:30N 50°49' E 001°24'711.3
2018-Jun-16 22:53N 50°42' E 001°21'611.8
2018-Jun-16 22:25N 50°38' E 001°14'3511.1
2018-Jun-16 19:15N 50°24' E 000°23'310.3
2018-Jun-16 18:58N 50°24' E 000°19'510.0
2018-Jun-16 18:30N 50°23' E 000°12'5 9.8
2018-Jun-16 17:59N 50°22' E 000°04'5 9.7
2018-Jun-16 17:30N 50°21' W 000°03'5 9.4
2018-Jun-16 16:58N 50°20' W 000°11'5 9.7
2018-Jun-16 16:30N 50°23' W 000°17'11 9.7
2018-Jun-16 15:21N 50°28' W 000°32'310.2
2018-Jun-16 15:00N 50°30' W 000°37'5 9.4
2018-Jun-16 14:30N 50°32' W 000°44'5 8.8
2018-Jun-16 13:58N 50°34' W 000°50'5 9.7
2018-Jun-16 13:30N 50°37' W 000°56'510.2
2018-Jun-16 13:00N 50°42' W 000°58'5 9.7
2018-Jun-16 12:30N 50°44' W 001°05'611.0
2018-Jun-16 12:00N 50°46' W 001°13'4 7.8
2018-Jun-16 11:30N 50°48' W 001°18'3 4.9
2018-Jun-16 10:56N 50°51' W 001°20'0 0.0
2018-Jun-16 10:26N 50°51' W 001°20'0 0.0
2018-Jun-16 09:56N 50°51' W 001°20'0 0.0
2018-Jun-16 09:29N 50°51' W 001°20'0 0.0
2018-Jun-16 08:59N 50°51' W 001°20'0 0.0
2018-Jun-16 08:29N 50°51' W 001°20'0 0.0
2018-Jun-16 07:56N 50°51' W 001°20'0 0.0
2018-Jun-16 07:29N 50°51' W 001°20'0 0.0
2018-Jun-16 06:59N 50°51' W 001°20'0 0.0
2018-Jun-16 06:29N 50°51' W 001°20'0 0.0
2018-Jun-16 05:59N 50°51' W 001°20'0 0.0
2018-Jun-16 05:29N 50°51' W 001°20'0 0.0
2018-Jun-16 04:59N 50°51' W 001°20'0 0.0
2018-Jun-16 04:29N 50°51' W 001°20'0 0.0
2018-Jun-16 03:53N 50°51' W 001°20'0 0.0
2018-Jun-16 03:29N 50°51' W 001°20'0 0.0
2018-Jun-16 02:59N 50°51' W 001°20'0 0.0
2018-Jun-16 02:29N 50°51' W 001°20'0 0.0
2018-Jun-16 01:59N 50°51' W 001°20'0 0.0
2018-Jun-16 01:29N 50°51' W 001°20'0 0.0
2018-Jun-16 00:56N 50°51' W 001°20'0 0.0
2018-Jun-16 00:29N 50°51' W 001°20'0 0.0
2018-Jun-15 23:59N 50°51' W 001°20'0 0.0
2018-Jun-15 23:29N 50°51' W 001°20'0 0.0
2018-Jun-15 22:59N 50°51' W 001°20'0 0.0
2018-Jun-15 22:29N 50°51' W 001°20'0 0.0
2018-Jun-15 21:59N 50°51' W 001°20'0 0.0
2018-Jun-15 21:29N 50°51' W 001°20'0 0.0
2018-Jun-15 20:59N 50°51' W 001°20'0 0.0
2018-Jun-15 20:29N 50°51' W 001°20'0 0.0
2018-Jun-15 19:47N 50°51' W 001°20'0 0.0
2018-Jun-15 19:29N 50°51' W 001°20'0 0.0
2018-Jun-15 18:59N 50°51' W 001°20'0 0.0
2018-Jun-15 18:29N 50°51' W 001°20'0 0.0
2018-Jun-15 17:59N 50°51' W 001°20'0 0.0
2018-Jun-15 17:29N 50°51' W 001°20'0 0.0
2018-Jun-15 16:50N 50°51' W 001°20'0 0.0
2018-Jun-15 16:29N 50°51' W 001°20'0 0.0
2018-Jun-15 15:59N 50°51' W 001°20'0 0.0
2018-Jun-15 15:29N 50°51' W 001°20'0 0.0
2018-Jun-15 14:59N 50°51' W 001°20'0 0.0
2018-Jun-15 14:26N 50°51' W 001°20'0 0.0
2018-Jun-15 13:59N 50°51' W 001°20'0 0.0
2018-Jun-15 13:26N 50°51' W 001°20'0 0.0
2018-Jun-15 12:53N 50°51' W 001°20'0 0.0
2018-Jun-15 12:29N 50°51' W 001°20'0 0.0
2018-Jun-15 11:59N 50°51' W 001°20'0 0.0
2018-Jun-15 11:29N 50°51' W 001°20'0 0.0
2018-Jun-15 10:59N 50°51' W 001°20'0 0.0
2018-Jun-15 10:29N 50°51' W 001°20'0 0.0
2018-Jun-15 09:53N 50°51' W 001°20'0 0.0
2018-Jun-15 09:29N 50°51' W 001°20'0 0.0
2018-Jun-15 08:59N 50°51' W 001°20'0 0.0
2018-Jun-15 08:29N 50°51' W 001°20'0 0.0
2018-Jun-15 07:59N 50°51' W 001°20'0 0.0
2018-Jun-15 07:29N 50°51' W 001°20'0 0.0
2018-Jun-15 06:59N 50°51' W 001°20'0 0.0
2018-Jun-15 06:23N 50°51' W 001°20'  
Track history (hours):
 
Tides and Currents Weather Stations Pressure Air Temp Water Temp Dewpoint Dewpoint Depression Visibility Wind Speed Wind Dir Waves Ship Positions

Hafnia Soya

Last reported at 2018-Jun-25 06:00 UTC. Time now 2018-Jun-25 06:07 UTC.
Position N 59°45' E 024°43'.

Length 184 m; draft 8.2 m.

Type: Tanker. MMSI: 566583000.

Date/timePositionNaut miles runAvg speedWind from/ knotsBaromVisibWave heightAir tempDewpointWater temp
2018-Jun-25 06:00N 59°45' E 024°43'612.9
2018-Jun-25 05:30N 59°44' E 024°31'612.6
2018-Jun-25 05:00N 59°42' E 024°19'712.3
2018-Jun-25 04:27N 59°40' E 024°06'1012.6
2018-Jun-25 03:41N 59°37' E 023°48'512.4
2018-Jun-25 03:19N 59°36' E 023°39'412.4
2018-Jun-25 03:00N 59°35' E 023°32'812.2
2018-Jun-25 02:23N 59°32' E 023°18'5612.7
2018-Jun-24 21:58N 59°04' E 021°43'611.9
2018-Jun-24 21:26N 58°58' E 021°35'511.8
2018-Jun-24 21:00N 58°54' E 021°30'28413.1
2018-Jun-23 23:14N 55°35' E 015°15'613.1
2018-Jun-23 22:48N 55°32' E 015°06'413.2
2018-Jun-23 22:30N 55°30' E 015°00'613.0
2018-Jun-23 22:00N 55°27' E 014°50'613.0
2018-Jun-23 21:30N 55°24' E 014°40'612.9
2018-Jun-23 21:01N 55°19' E 014°32'612.9
2018-Jun-23 20:31N 55°15' E 014°25'712.8
2018-Jun-23 20:00N 55°10' E 014°17'613.1
2018-Jun-23 19:30N 55°09' E 014°05'713.3
2018-Jun-23 19:00N 55°09' E 013°53'613.2
2018-Jun-23 18:30N 55°10' E 013°42'713.6
2018-Jun-23 18:00N 55°11' E 013°30'1013.4
2018-Jun-23 17:17N 55°12' E 013°14'513.0
2018-Jun-23 16:57N 55°13' E 013°06'613.2
2018-Jun-23 16:29N 55°14' E 012°56'713.5
2018-Jun-23 16:00N 55°16' E 012°45'511.0
2018-Jun-23 15:30N 55°20' E 012°38'612.7
2018-Jun-23 15:00N 55°27' E 012°40'510.9
2018-Jun-23 14:30N 55°31' E 012°45'4 9.1
2018-Jun-23 14:00N 55°35' E 012°50'4 7.9
2018-Jun-23 13:30N 55°38' E 012°55'611.8
2018-Jun-23 13:01N 55°43' E 012°52'713.8
2018-Jun-23 12:30N 55°49' E 012°46'714.1
2018-Jun-23 12:00N 55°56' E 012°43'715.0
2018-Jun-23 11:30N 56°03' E 012°39'713.4
2018-Jun-23 11:00N 56°07' E 012°29'713.9
2018-Jun-23 10:30N 56°11' E 012°19'6913.0
2018-Jun-23 05:12N 57°16' E 011°32'313.8
2018-Jun-23 05:00N 57°18' E 011°30'713.9
2018-Jun-23 04:30N 57°25' E 011°26'713.7
2018-Jun-23 04:00N 57°30' E 011°18'713.1
2018-Jun-23 03:30N 57°35' E 011°09'713.4
2018-Jun-23 03:00N 57°39' E 011°00'713.3
2018-Jun-23 02:30N 57°44' E 010°51'713.6
2018-Jun-23 02:00N 57°48' E 010°41'40810.1
2018-Jun-21 09:34N 52°29' E 003°14'112.6
2018-Jun-21 09:30N 52°29' E 003°13'612.5
2018-Jun-21 09:01N 52°22' E 003°12'612.5
2018-Jun-21 08:30N 52°16' E 003°10'1712.6
2018-Jun-21 07:10N 51°60' E 003°06'512.5
2018-Jun-21 06:46N 51°55' E 003°07'312.3
2018-Jun-21 06:29N 51°51' E 003°08'911.6
2018-Jun-21 05:42N 51°44' E 003°17'1 3.6
2018-Jun-21 05:30N 51°44' E 003°17'6 9.1
2018-Jun-21 04:52N 51°38' E 003°21'511.5
2018-Jun-21 04:26N 51°34' E 003°25'510.5
2018-Jun-21 04:00N 51°30' E 003°28'510.3
2018-Jun-21 03:30N 51°26' E 003°34'3 6.6
2018-Jun-21 03:00N 51°27' E 003°39'611.1
2018-Jun-21 02:30N 51°22' E 003°45'612.6
2018-Jun-21 02:00N 51°22' E 003°55'510.9
2018-Jun-21 01:30N 51°25' E 004°02'510.6
2018-Jun-21 01:00N 51°23' E 004°09'5 9.7
2018-Jun-21 00:30N 51°21' E 004°16'1 1.3
2018-Jun-21 00:01N 51°21' E 004°17'0 0.0
2018-Jun-20 23:31N 51°21' E 004°17'0 0.7
2018-Jun-20 23:00N 51°21' E 004°18'3 5.8
2018-Jun-20 22:30N 51°18' E 004°20'1 1.4
2018-Jun-20 22:01N 51°17' E 004°20'0 0.0
2018-Jun-20 21:28N 51°17' E 004°20'0 0.0
2018-Jun-20 20:58N 51°17' E 004°20'0 0.0
2018-Jun-20 20:28N 51°17' E 004°20'0 0.0
2018-Jun-20 19:34N 51°17' E 004°20'0 0.0
2018-Jun-20 19:28N 51°17' E 004°20'0 0.0
2018-Jun-20 19:01N 51°17' E 004°20'0 0.0
2018-Jun-20 18:19N 51°17' E 004°20'0 0.0
2018-Jun-20 17:58N 51°17' E 004°20'0 0.0
2018-Jun-20 17:28N 51°17' E 004°20'0 0.0
2018-Jun-20 16:55N 51°17' E 004°20'0 0.0
2018-Jun-20 16:31N 51°17' E 004°20'0 0.0
2018-Jun-20 15:40N 51°17' E 004°20'0 0.0
2018-Jun-20 15:28N 51°17' E 004°20'0 0.0
2018-Jun-20 15:01N 51°17' E 004°20'0 0.0
2018-Jun-20 14:28N 51°17' E 004°20'0 0.0
2018-Jun-20 13:55N 51°17' E 004°20'0 0.0
2018-Jun-20 13:31N 51°17' E 004°20'0 0.0
2018-Jun-20 13:01N 51°17' E 004°20'0 0.0
2018-Jun-20 12:31N 51°17' E 004°20'0 0.0
2018-Jun-20 12:01N 51°17' E 004°20'0 0.0
2018-Jun-20 11:31N 51°17' E 004°20'0 0.0
2018-Jun-20 11:01N 51°17' E 004°20'0 0.0
2018-Jun-20 10:31N 51°17' E 004°20'0 0.0
2018-Jun-20 09:55N 51°17' E 004°20'0 0.0
2018-Jun-20 09:28N 51°17' E 004°20'0 0.0
2018-Jun-20 09:01N 51°17' E 004°20'0 0.0
2018-Jun-20 08:31N 51°17' E 004°20'0 0.0
2018-Jun-20 07:49N 51°17' E 004°20'0 0.0
2018-Jun-20 07:22N 51°17' E 004°20'0 0.0
2018-Jun-20 04:37N 51°17' E 004°20'0 0.0
2018-Jun-20 04:25N 51°17' E 004°20'0 0.0
2018-Jun-20 03:55N 51°17' E 004°20'0 0.0
2018-Jun-20 03:31N 51°17' E 004°20'0 0.0
2018-Jun-20 03:01N 51°17' E 004°20'0 0.0
2018-Jun-20 02:07N 51°17' E 004°20'0 0.0
2018-Jun-20 01:55N 51°17' E 004°20'0 0.0
2018-Jun-20 01:31N 51°17' E 004°20'0 0.0
2018-Jun-19 23:49N 51°17' E 004°20'0 0.0
2018-Jun-19 23:31N 51°17' E 004°20'0 0.0
2018-Jun-19 22:55N 51°17' E 004°20'0 0.0
2018-Jun-19 22:25N 51°17' E 004°20'0 0.0
2018-Jun-19 22:01N 51°17' E 004°20'0 0.0
2018-Jun-19 21:22N 51°17' E 004°20'0 0.0
2018-Jun-19 18:22N 51°17' E 004°20'0 0.0
2018-Jun-19 17:55N 51°17' E 004°20'0 0.0
2018-Jun-19 16:43N 51°17' E 004°20'0 0.0
2018-Jun-19 16:31N 51°17' E 004°20'0 0.0
2018-Jun-19 15:52N 51°17' E 004°20'0 0.0
2018-Jun-19 15:25N 51°17' E 004°20'0 0.0
2018-Jun-19 14:58N 51°17' E 004°20'0 0.0
2018-Jun-19 14:16N 51°17' E 004°20'0 0.0
2018-Jun-19 14:01N 51°17' E 004°20'0 0.0
2018-Jun-19 13:25N 51°17' E 004°20'0 0.0
2018-Jun-19 13:01N 51°17' E 004°20'0 0.0
2018-Jun-19 11:25N 51°17' E 004°20'0 0.0
2018-Jun-19 10:55N 51°17' E 004°20'0 0.0
2018-Jun-19 10:31N 51°17' E 004°20'0 0.0
2018-Jun-19 10:01N 51°17' E 004°20'0 0.0
2018-Jun-19 09:13N 51°17' E 004°20'0 0.0
2018-Jun-19 08:55N 51°17' E 004°20'0 0.0
2018-Jun-19 06:25N 51°17' E 004°20'0 0.0
2018-Jun-19 06:01N 51°17' E 004°20'0 0.0
2018-Jun-19 05:19N 51°17' E 004°20'0 0.0
2018-Jun-19 04:58N 51°17' E 004°20'0 0.0
2018-Jun-19 04:28N 51°17' E 004°20'0 0.0
2018-Jun-19 03:55N 51°17' E 004°20'0 0.0
2018-Jun-19 03:31N 51°17' E 004°20'0 0.0
2018-Jun-19 03:01N 51°17' E 004°20'0 0.0
2018-Jun-19 02:31N 51°17' E 004°20'0 0.0
2018-Jun-19 02:01N 51°17' E 004°20'0 0.0
2018-Jun-19 01:28N 51°17' E 004°20'0 0.0
2018-Jun-19 00:58N 51°17' E 004°20'0 0.0
2018-Jun-19 00:28N 51°17' E 004°20'0 0.0
2018-Jun-18 23:52N 51°17' E 004°20'0 0.0
2018-Jun-18 23:28N 51°17' E 004°20'0 0.0
2018-Jun-18 22:58N 51°17' E 004°20'0 0.0
2018-Jun-18 22:25N 51°17' E 004°20'0 0.0
2018-Jun-18 19:19N 51°17' E 004°20'0 0.0
2018-Jun-18 18:55N 51°17' E 004°20'0 0.0
2018-Jun-18 17:43N 51°17' E 004°20'0 0.0
2018-Jun-18 16:28N 51°17' E 004°20'0 0.0
2018-Jun-18 15:49N 51°17' E 004°20'0 0.0
2018-Jun-18 14:43N 51°17' E 004°20'0 0.0
2018-Jun-18 14:13N 51°17' E 004°20'0 0.0
2018-Jun-18 13:55N 51°17' E 004°20'0 0.0
2018-Jun-18 10:16N 51°17' E 004°20'0 0.0
2018-Jun-18 10:01N 51°17' E 004°20'0 0.0
2018-Jun-18 08:40N 51°17' E 004°20'0 0.0
2018-Jun-18 08:25N 51°17' E 004°20'0 0.0
2018-Jun-18 07:34N 51°17' E 004°20'0 0.0
2018-Jun-18 07:04N 51°17' E 004°20'0 0.1
2018-Jun-18 07:00N 51°17' E 004°20'0 0.4
2018-Jun-18 06:30N 51°17' E 004°20'3 5.4
2018-Jun-18 06:00N 51°20' E 004°18'1 1.9
2018-Jun-18 05:28N 51°21' E 004°17'0 0.0
2018-Jun-18 04:58N 51°21' E 004°17'0 0.0
2018-Jun-18 04:30N 51°21' E 004°17'1 1.0
2018-Jun-18 04:00N 51°21' E 004°16'4 7.6
2018-Jun-18 03:31N 51°24' E 004°12'611.9
2018-Jun-18 03:00N 51°23' E 004°03'4 7.8
2018-Jun-18 02:30N 51°25' E 003°58'612.7
2018-Jun-18 02:00N 51°21' E 003°50'611.9
2018-Jun-18 01:30N 51°25' E 003°42'5 9.3
2018-Jun-18 01:00N 51°26' E 003°35'611.1
2018-Jun-18 00:30N 51°25' E 003°26'612.5
2018-Jun-18 00:00N 51°24' E 003°16'611.6
2018-Jun-17 23:30N 51°24' E 003°07'510.3
2018-Jun-17 23:00N 51°25' E 002°59'511.0
2018-Jun-17 22:30N 51°25' E 002°50'5 9.0
2018-Jun-17 22:00N 51°22' E 002°45'3 6.3
2018-Jun-17 21:28N 51°25' E 002°41'2 4.7
2018-Jun-17 20:56N 51°27' E 002°40'0 0.2
2018-Jun-17 20:25N 51°27' E 002°40'0 0.0
2018-Jun-17 19:58N 51°27' E 002°40'0 0.0
2018-Jun-17 19:28N 51°27' E 002°40'0 0.0
2018-Jun-17 18:46N 51°27' E 002°40'0 0.0
2018-Jun-17 18:28N 51°27' E 002°40'0 0.0
2018-Jun-17 17:58N 51°27' E 002°40'0 0.0
2018-Jun-17 17:28N 51°27' E 002°40'0 0.0
2018-Jun-17 16:58N 51°27' E 002°40'0 0.0
2018-Jun-17 16:28N 51°27' E 002°40'0 0.0
2018-Jun-17 15:58N 51°27' E 002°40'0 0.1
2018-Jun-17 15:28N 51°27' E 002°40'0 0.1
2018-Jun-17 14:58N 51°27' E 002°40'0 0.0
2018-Jun-17 14:28N 51°27' E 002°40'0 0.1
2018-Jun-17 13:55N 51°27' E 002°40'0 0.1
2018-Jun-17 13:25N 51°27' E 002°40'0 0.2
2018-Jun-17 12:10N 51°27' E 002°39'0 0.0
2018-Jun-17 11:52N 51°27' E 002°39'0 0.0
2018-Jun-17 11:28N 51°27' E 002°39'0 0.0
2018-Jun-17 10:58N 51°27' E 002°39'0 0.0
2018-Jun-17 10:28N 51°27' E 002°39'0 0.0
2018-Jun-17 09:55N 51°27' E 002°39'0 0.0
2018-Jun-17 09:28N 51°27' E 002°39'0 0.2
2018-Jun-17 08:58N 51°27' E 002°39'0 0.4
2018-Jun-17 08:25N 51°27' E 002°39'0 0.2
2018-Jun-17 07:46N 51°27' E 002°40'0 0.1
2018-Jun-17 07:28N 51°27' E 002°40'0 0.0
2018-Jun-17 06:58N 51°27' E 002°40'0 0.0
2018-Jun-17 06:28N 51°27' E 002°40'0 0.0
2018-Jun-17 05:58N 51°27' E 002°40'0 0.0
2018-Jun-17 05:28N 51°27' E 002°40'0 0.0
2018-Jun-17 04:55N 51°27' E 002°40'0 0.5
2018-Jun-17 04:26N 51°27' E 002°39'4 9.0
2018-Jun-17 03:59N 51°24' E 002°35'612.2
2018-Jun-17 03:28N 51°21' E 002°26'612.9
2018-Jun-17 03:00N 51°18' E 002°18'713.3
2018-Jun-17 02:31N 51°15' E 002°09'713.4
2018-Jun-17 02:00N 51°12' E 001°59'713.6
2018-Jun-17 01:30N 51°08' E 001°50'713.9
2018-Jun-17 01:00N 51°04' E 001°42'713.7
2018-Jun-17 00:30N 50°59' E 001°34'612.8
2018-Jun-17 00:00N 50°54' E 001°26'611.9
2018-Jun-16 23:30N 50°49' E 001°24'711.3
2018-Jun-16 22:53N 50°42' E 001°21'611.8
2018-Jun-16 22:25N 50°38' E 001°14'3511.1
2018-Jun-16 19:15N 50°24' E 000°23'310.3
2018-Jun-16 18:58N 50°24' E 000°19'510.0
2018-Jun-16 18:30N 50°23' E 000°12'5 9.8
2018-Jun-16 17:59N 50°22' E 000°04'5 9.7
2018-Jun-16 17:30N 50°21' W 000°03'5 9.4
2018-Jun-16 16:58N 50°20' W 000°11'5 9.7
2018-Jun-16 16:30N 50°23' W 000°17'11 9.7
2018-Jun-16 15:21N 50°28' W 000°32'310.2
2018-Jun-16 15:00N 50°30' W 000°37'5 9.4
2018-Jun-16 14:30N 50°32' W 000°44'5 8.8
2018-Jun-16 13:58N 50°34' W 000°50'5 9.7
2018-Jun-16 13:30N 50°37' W 000°56'510.2
2018-Jun-16 13:00N 50°42' W 000°58'5 9.7
2018-Jun-16 12:30N 50°44' W 001°05'611.0
2018-Jun-16 12:00N 50°46' W 001°13'4 7.8
2018-Jun-16 11:30N 50°48' W 001°18'3 4.9
2018-Jun-16 10:56N 50°51' W 001°20'0 0.0
2018-Jun-16 10:26N 50°51' W 001°20'0 0.0
2018-Jun-16 09:56N 50°51' W 001°20'0 0.0
2018-Jun-16 09:29N 50°51' W 001°20'0 0.0
2018-Jun-16 08:59N 50°51' W 001°20'0 0.0
2018-Jun-16 08:29N 50°51' W 001°20'0 0.0
2018-Jun-16 07:56N 50°51' W 001°20'0 0.0
2018-Jun-16 07:29N 50°51' W 001°20'0 0.0
2018-Jun-16 06:59N 50°51' W 001°20'0 0.0
2018-Jun-16 06:29N 50°51' W 001°20'0 0.0
2018-Jun-16 05:59N 50°51' W 001°20'0 0.0
2018-Jun-16 05:29N 50°51' W 001°20'0 0.0
2018-Jun-16 04:59N 50°51' W 001°20'0 0.0
2018-Jun-16 04:29N 50°51' W 001°20'0 0.0
2018-Jun-16 03:53N 50°51' W 001°20'0 0.0
2018-Jun-16 03:29N 50°51' W 001°20'0 0.0
2018-Jun-16 02:59N 50°51' W 001°20'0 0.0
2018-Jun-16 02:29N 50°51' W 001°20'0 0.0
2018-Jun-16 01:59N 50°51' W 001°20'0 0.0
2018-Jun-16 01:29N 50°51' W 001°20'0 0.0
2018-Jun-16 00:56N 50°51' W 001°20'0 0.0
2018-Jun-16 00:29N 50°51' W 001°20'0 0.0
2018-Jun-15 23:59N 50°51' W 001°20'0 0.0
2018-Jun-15 23:29N 50°51' W 001°20'0 0.0
2018-Jun-15 22:59N 50°51' W 001°20'0 0.0
2018-Jun-15 22:29N 50°51' W 001°20'0 0.0
2018-Jun-15 21:59N 50°51' W 001°20'0 0.0
2018-Jun-15 21:29N 50°51' W 001°20'0 0.0
2018-Jun-15 20:59N 50°51' W 001°20'0 0.0
2018-Jun-15 20:29N 50°51' W 001°20'0 0.0
2018-Jun-15 19:47N 50°51' W 001°20'0 0.0
2018-Jun-15 19:29N 50°51' W 001°20'0 0.0
2018-Jun-15 18:59N 50°51' W 001°20'0 0.0
2018-Jun-15 18:29N 50°51' W 001°20'0 0.0
2018-Jun-15 17:59N 50°51' W 001°20'0 0.0
2018-Jun-15 17:29N 50°51' W 001°20'0 0.0
2018-Jun-15 16:50N 50°51' W 001°20'0 0.0
2018-Jun-15 16:29N 50°51' W 001°20'0 0.0
2018-Jun-15 15:59N 50°51' W 001°20'0 0.0
2018-Jun-15 15:29N 50°51' W 001°20'0 0.0
2018-Jun-15 14:59N 50°51' W 001°20'0 0.0
2018-Jun-15 14:26N 50°51' W 001°20'0 0.0
2018-Jun-15 13:59N 50°51' W 001°20'0 0.0
2018-Jun-15 13:26N 50°51' W 001°20'0 0.0
2018-Jun-15 12:53N 50°51' W 001°20'0 0.0
2018-Jun-15 12:29N 50°51' W 001°20'0 0.0
2018-Jun-15 11:59N 50°51' W 001°20'0 0.0
2018-Jun-15 11:29N 50°51' W 001°20'0 0.0
2018-Jun-15 10:59N 50°51' W 001°20'0 0.0
2018-Jun-15 10:29N 50°51' W 001°20'0 0.0
2018-Jun-15 09:53N 50°51' W 001°20'0 0.0
2018-Jun-15 09:29N 50°51' W 001°20'0 0.0
2018-Jun-15 08:59N 50°51' W 001°20'0 0.0
2018-Jun-15 08:29N 50°51' W 001°20'0 0.0
2018-Jun-15 07:59N 50°51' W 001°20'0 0.0
2018-Jun-15 07:29N 50°51' W 001°20'0 0.0
2018-Jun-15 06:59N 50°51' W 001°20'0 0.0
2018-Jun-15 06:23N 50°51' W 001°20'  

Dump ship's entire track history